createdAt,value
2022-11-24T06:35:31.601Z,100249.28
2022-11-24T06:47:15.351Z,100256.16
2022-11-24T06:49:42.505Z,100263.16
2022-11-24T06:52:09.953Z,100270.16
2022-11-24T06:54:37.200Z,100261.47
2022-11-24T06:57:04.586Z,100260.56
2022-11-24T06:59:31.731Z,100262.28
2022-11-24T07:01:58.838Z,100260.44
2022-11-24T07:04:25.982Z,100259.53
2022-11-24T07:06:53.185Z,100255.97
2022-11-24T07:09:20.289Z,100263.72
2022-11-24T07:11:47.426Z,100267.97
2022-11-24T07:14:14.723Z,100274.84
2022-11-24T07:16:42.270Z,100273.13
2022-11-24T07:19:10.272Z,100283.53
2022-11-24T07:21:37.437Z,100276.56
2022-11-24T07:24:04.980Z,100285.28
2022-11-24T07:26:37.095Z,100279.44
2022-11-24T07:29:05.277Z,100283.66
2022-11-24T07:31:32.448Z,100282.69
2022-11-24T07:33:59.777Z,100293.16
2022-11-24T07:36:26.938Z,100292.34
2022-11-24T07:38:54.110Z,100300.06
2022-11-24T07:41:21.471Z,100304.22
2022-11-24T07:43:49.328Z,100308.50
2022-11-24T07:46:18.851Z,100303.19
2022-11-24T07:48:46.748Z,100302.34
2022-11-24T07:51:13.970Z,100311.75
2022-11-24T07:53:41.289Z,100307.41
2022-11-24T07:56:09.263Z,100315.97
2022-11-24T07:58:37.491Z,100314.22
2022-11-24T08:01:18.207Z,100316.88
2022-11-24T08:03:46.394Z,100310.81
2022-11-24T08:06:38.172Z,100309.81
2022-11-24T08:09:02.410Z,100314.88
2022-11-24T08:11:31.453Z,100308.84
2022-11-24T08:13:58.761Z,100306.22
2022-11-24T08:16:26.049Z,100307.09
2022-11-24T08:18:55.048Z,100309.59
2022-11-24T08:21:25.783Z,100309.53
2022-11-24T08:23:56.673Z,100312.03
2022-11-24T08:26:24.886Z,100327.66
2022-11-24T08:28:57.642Z,100323.16
2022-11-24T08:31:27.170Z,100330.03
2022-11-24T08:33:56.012Z,100323.88
2022-11-24T08:36:23.222Z,100330.69
2022-11-24T08:38:54.710Z,100336.84
2022-11-24T08:41:22.139Z,100333.53
2022-11-24T08:43:49.303Z,100333.41
2022-11-24T08:46:17.392Z,100336.78
2022-11-24T08:48:49.128Z,100337.56
2022-11-24T08:51:18.867Z,100334.19
2022-11-24T08:53:46.225Z,100341.84
2022-11-24T08:56:13.517Z,100336.56
2022-11-24T08:58:41.731Z,100339.25
2022-11-24T09:01:14.091Z,100334.88
2022-11-24T09:03:49.956Z,100336.44
2022-11-24T09:06:25.102Z,100338.03
2022-11-24T09:08:54.101Z,100334.41
2022-11-24T09:11:21.449Z,100340.38
2022-11-24T09:13:48.683Z,100345.50
2022-11-24T09:16:18.733Z,100343.72
2022-11-24T09:18:46.510Z,100347.91
2022-11-24T09:21:15.951Z,100353.94
2022-11-24T09:23:44.019Z,100363.38
2022-11-24T09:26:16.844Z,100371.13
2022-11-24T09:28:44.138Z,100373.66
2022-11-24T09:31:14.114Z,100377.22
2022-11-24T09:33:42.168Z,100373.66
2022-11-24T09:36:09.570Z,100371.41
2022-11-24T09:38:36.923Z,100370.69
2022-11-24T09:41:22.182Z,100369.72
2022-11-24T09:44:14.329Z,100372.13
2022-11-24T09:46:50.308Z,100379.69
2022-11-24T09:49:24.663Z,100372.63
2022-11-24T09:51:52.467Z,100368.25
2022-11-24T09:54:26.367Z,100376.81
2022-11-24T09:56:53.588Z,100387.94
2022-11-24T09:59:24.884Z,100392.16
2022-11-24T10:01:52.680Z,100399.88
2022-11-24T10:04:22.896Z,100395.34
2022-11-24T10:07:12.007Z,100390.78
2022-11-24T10:10:10.713Z,100394.19
2022-11-24T10:12:52.690Z,100397.69
2022-11-24T10:15:24.494Z,100390.56
2022-11-24T10:18:17.061Z,100381.69
2022-11-24T10:21:06.324Z,100388.25
2022-11-24T10:24:00.597Z,100387.22
2022-11-24T10:26:41.657Z,100385.31
2022-11-24T10:29:36.855Z,100392.75
2022-11-24T10:32:06.846Z,100386.50
2022-11-24T10:35:13.444Z,100400.84
2022-11-24T10:37:50.400Z,100397.88
2022-11-24T10:40:56.507Z,100398.50
2022-11-24T10:43:13.106Z,100407.00
2022-11-24T10:45:40.595Z,100399.00
2022-11-24T10:48:21.745Z,100402.38
2022-11-24T10:50:48.899Z,100399.72
2022-11-24T10:53:35.585Z,100395.25
2022-11-24T10:56:05.018Z,100396.84
2022-11-24T10:58:38.490Z,100389.03
2022-11-24T11:01:14.883Z,100394.84
2022-11-24T11:03:48.905Z,100398.97
2022-11-24T11:06:23.000Z,100397.94
2022-11-24T11:08:50.343Z,100403.06
2022-11-24T11:11:39.112Z,100407.94
2022-11-24T11:14:08.817Z,100411.03
2022-11-24T11:16:35.989Z,100410.88
2022-11-24T11:19:20.166Z,100414.09
2022-11-24T11:22:01.072Z,100417.53
2022-11-24T11:24:29.488Z,100415.53
2022-11-24T11:27:02.534Z,100412.81
2022-11-24T11:35:12.590Z,100403.91
2022-11-24T11:37:40.869Z,100397.19
2022-11-24T11:40:14.755Z,100401.50
2022-11-24T11:43:01.913Z,100395.13
2022-11-24T11:45:37.491Z,100395.78
2022-11-24T11:48:10.109Z,100403.63
2022-11-24T11:51:21.057Z,100407.16
2022-11-24T11:53:47.071Z,100400.34
2022-11-24T11:56:33.597Z,100399.31
2022-11-24T11:59:25.328Z,100394.97
2022-11-24T12:02:20.880Z,100395.19
2022-11-24T12:04:59.630Z,100404.94
2022-11-24T12:07:48.932Z,100405.78
2022-11-24T12:10:41.748Z,100405.41
2022-11-24T12:13:33.089Z,100408.16
2022-11-24T12:16:31.008Z,100399.09
2022-11-24T12:19:00.969Z,100392.84
2022-11-24T12:21:43.060Z,100396.44
2022-11-24T12:24:18.111Z,100400.81
2022-11-24T12:26:50.484Z,100398.28
2022-11-24T12:29:42.124Z,100404.31
2022-11-24T13:15:43.555Z,100427.09
2022-11-24T13:27:15.788Z,100432.78
2022-11-24T13:29:44.023Z,100437.22
2022-11-24T13:32:20.908Z,100441.69
2022-11-24T13:34:54.810Z,100450.88
2022-11-24T13:37:31.983Z,100444.81
2022-11-24T13:40:23.124Z,100446.78
2022-11-24T13:42:56.278Z,100451.09
2022-11-24T13:45:41.705Z,100457.19
2022-11-24T13:48:21.753Z,100459.38
2022-11-24T13:50:54.658Z,100454.00
2022-11-24T13:53:40.250Z,100463.50
2022-11-24T13:56:13.082Z,100450.47
2022-11-24T13:59:16.530Z,100469.72
2022-11-24T14:01:46.715Z,100473.38
2022-11-24T14:07:12.192Z,100483.72
2022-11-24T14:09:45.789Z,100483.19
2022-11-24T14:12:22.946Z,100495.44
2022-11-24T14:14:51.696Z,100492.75
2022-11-24T14:17:23.782Z,100494.63
2022-11-24T14:19:53.433Z,100506.09
2022-11-24T14:22:35.076Z,100510.53
2022-11-24T14:25:02.809Z,100517.66
2022-11-24T15:54:32.841Z,100592.00
2022-11-24T18:58:19.089Z,100677.13
2022-11-24T19:00:46.290Z,100677.34
2022-11-24T19:03:13.608Z,100677.22
2022-11-24T19:05:41.199Z,100678.88
2022-11-24T19:08:08.386Z,100675.19
2022-11-24T19:10:39.419Z,100676.78
2022-11-24T19:13:06.631Z,100675.03
2022-11-24T19:15:35.017Z,100675.94
2022-11-24T19:18:02.404Z,100680.31
2022-11-24T19:20:29.724Z,100680.31
2022-11-24T19:27:53.620Z,100679.50
2022-11-24T19:44:25.113Z,100685.69
2022-11-24T19:55:42.849Z,100707.03
2022-11-24T19:58:37.027Z,100715.03
2022-11-24T20:02:02.634Z,100710.88
2022-11-24T20:04:30.335Z,100710.88
2022-11-24T20:08:00.810Z,100719.56
2022-11-24T20:10:31.480Z,100719.56
2022-11-24T20:14:27.557Z,100723.06
2022-11-24T20:17:20.357Z,100733.81
2022-11-24T20:19:47.579Z,100731.50
2022-11-24T20:31:08.137Z,100742.44
2022-11-24T20:50:27.272Z,100750.50
2022-11-24T21:01:48.352Z,100742.16
2022-11-24T21:09:30.642Z,100743.50
2022-11-24T22:25:32.258Z,100797.72
2022-11-24T23:04:24.943Z,100810.97
2022-11-24T23:43:05.109Z,100814.53
